Time;durP1;ratioP1;P1;durP2;ratioP2;P2;SDS_P1;SDS_P2;PMS_P1;PMS_P2;Temp;Humidity;BMP_temperature;BMP_pressure;BME280_temperature;BME280_humidity;BME280_pressure;Samples;Min_cycle;Max_cycle;Signal;HPM_P1;HPM_P2
2021/09/02 00:02:39;;;;;;;;;;;11.20;99.90;;;9.87;100.00;96567.31;10400415;28;2033;-85
2021/09/02 00:07:42;;;;;;;;;;;11.10;99.90;;;9.85;100.00;96558.69;10395006;28;2100;-82
2021/09/02 00:12:45;;;;;;;;;;;11.10;99.90;;;9.81;100.00;96551.41;10406598;28;2179;-84
2021/09/02 00:17:59;;;;;;;;;;;11.00;99.90;;;9.69;100.00;96541.59;10404901;28;2171;-81
2021/09/02 00:23:02;;;;;;;;;;;11.00;99.90;;;9.69;100.00;96549.63;10400150;28;2117;-82
2021/09/02 00:28:06;;;;;;;;;;;10.90;99.90;;;9.63;100.00;96541.78;10416947;28;2064;-84
2021/09/02 00:33:08;;;;;;;;;;;10.90;99.90;;;9.63;100.00;96545.25;10404035;28;2280;-83
2021/09/02 00:38:11;;;;;;;;;;;10.90;99.90;;;9.58;100.00;96547.88;10401980;28;1955;-82
2021/09/02 00:43:14;;;;;;;;;;;10.80;99.90;;;9.51;100.00;96547.25;10408025;28;2100;-84
2021/09/02 00:48:17;;;;;;;;;;;10.80;99.90;;;9.43;100.00;96535.06;10399365;28;2041;-85
2021/09/02 00:53:21;;;;;;;;;;;10.70;99.90;;;9.39;100.00;96535.81;10414020;28;2037;-84
2021/09/02 00:58:24;;;;;;;;;;;10.70;99.90;;;9.34;100.00;96519.63;10425611;28;2073;-83
2021/09/02 01:03:27;;;;;;;;;;;10.60;99.90;;;9.29;100.00;96522.22;10413678;28;2045;-84
2021/09/02 01:08:30;;;;;;;;;;;10.50;99.90;;;9.24;100.00;96524.88;10408200;28;2176;-82
2021/09/02 01:13:33;;;;;;;;;;;10.50;99.90;;;9.19;100.00;96531.78;10410811;28;2178;-83
2021/09/02 01:18:37;;;;;;;;;;;10.50;99.90;;;9.19;100.00;96534.44;10419084;28;2072;-85
2021/09/02 01:23:40;;;;;;;;;;;10.50;99.90;;;9.18;100.00;96522.09;10429909;28;2086;-83
2021/09/02 01:29:03;;;;;;;;;;;10.40;99.90;;;9.16;100.00;96529.59;10441264;28;2022;-82
2021/09/02 01:34:06;;;;;;;;;;;10.40;99.90;;;9.09;100.00;96528.94;10438741;28;2243;-82
2021/09/02 01:39:09;;;;;;;;;;;10.40;99.90;;;9.05;100.00;96527.00;10436453;28;1780;-83
2021/09/02 01:44:12;;;;;;;;;;;10.30;99.90;;;8.96;100.00;96523.09;10444711;28;2132;-83
2021/09/02 01:49:15;;;;;;;;;;;10.30;99.90;;;8.89;100.00;96518.69;10425008;28;2032;-82
2021/09/02 01:54:18;;;;;;;;;;;10.20;99.90;;;8.95;100.00;96522.28;10409621;28;2113;-84
2021/09/02 01:59:20;;;;;;;;;;;10.10;99.90;;;9.02;100.00;96506.03;10422589;28;1909;-85
2021/09/02 02:04:23;;;;;;;;;;;10.20;99.90;;;9.04;100.00;96509.28;10419434;28;2052;-82
2021/09/02 02:09:26;;;;;;;;;;;10.30;99.90;;;9.05;100.00;96498.31;10424516;28;2059;-80
2021/09/02 02:14:29;;;;;;;;;;;10.30;99.90;;;9.09;100.00;96494.06;10425072;28;2100;-83
2021/09/02 02:19:32;;;;;;;;;;;10.30;99.90;;;9.07;100.00;96493.50;10412954;28;2124;-83
2021/09/02 02:24:35;;;;;;;;;;;10.30;99.90;;;9.05;100.00;96495.63;10409394;28;2100;-82
2021/09/02 02:29:38;;;;;;;;;;;10.30;99.90;;;9.08;100.00;96495.13;10417871;28;2139;-82
2021/09/02 02:34:41;;;;;;;;;;;10.30;99.90;;;9.06;100.00;96491.06;10422168;28;2072;-82
2021/09/02 02:39:44;;;;;;;;;;;10.30;99.90;;;9.08;100.00;96488.94;10409875;28;2076;-84
2021/09/02 02:44:47;;;;;;;;;;;10.30;99.90;;;9.05;100.00;96487.59;10404528;28;2243;-83
2021/09/02 02:49:50;;;;;;;;;;;10.30;99.90;;;9.02;100.00;96479.19;10410261;28;2156;-84
2021/09/02 02:54:53;;;;;;;;;;;10.20;99.90;;;8.96;100.00;96483.69;10426408;28;2026;-82
2021/09/02 02:59:56;;;;;;;;;;;10.20;99.90;;;8.91;100.00;96489.00;10422060;28;3656;-83
2021/09/02 03:04:59;;;;;;;;;;;10.20;99.90;;;8.83;100.00;96498.22;10409366;28;2116;-82
2021/09/02 03:10:02;;;;;;;;;;;10.10;99.90;;;8.74;100.00;96504.25;10414839;28;2096;-84
2021/09/02 03:15:05;;;;;;;;;;;10.10;99.90;;;8.80;100.00;96497.94;10410328;28;2111;-84
2021/09/02 03:20:08;;;;;;;;;;;10.00;99.90;;;8.76;100.00;96504.81;10408445;28;2309;-83
2021/09/02 03:25:11;;;;;;;;;;;10.00;99.90;;;8.69;100.00;96501.50;10408056;28;2113;-84
2021/09/02 03:30:14;;;;;;;;;;;10.00;99.90;;;8.56;100.00;96507.97;10408940;28;2002;-82
2021/09/02 03:35:18;;;;;;;;;;;9.90;99.90;;;8.50;100.00;96507.09;10401795;28;1955;-82
2021/09/02 03:40:21;;;;;;;;;;;9.80;99.90;;;8.48;100.00;96506.53;10410089;28;2140;-82
2021/09/02 03:45:24;;;;;;;;;;;9.80;99.90;;;8.35;100.00;96510.31;10407874;28;2069;-85
2021/09/02 03:50:26;;;;;;;;;;;9.70;99.90;;;8.37;100.00;96505.53;10407798;28;2080;-81
2021/09/02 03:55:29;;;;;;;;;;;9.60;99.90;;;8.45;100.00;96512.34;10412401;28;2001;-85
2021/09/02 04:00:32;;;;;;;;;;;9.70;99.90;;;8.48;100.00;96511.88;10426549;28;2322;-82
2021/09/02 04:05:35;;;;;;;;;;;9.70;99.90;;;8.46;100.00;96505.97;10408772;28;2185;-83
2021/09/02 04:10:38;;;;;;;;;;;9.70;99.90;;;8.43;100.00;96509.09;10404707;28;2051;-82
2021/09/02 04:15:41;;;;;;;;;;;9.70;99.90;;;8.47;100.00;96520.97;10409150;28;2180;-84
2021/09/02 04:20:44;;;;;;;;;;;9.70;99.90;;;8.48;100.00;96524.47;10405973;28;2141;-82
2021/09/02 04:25:47;;;;;;;;;;;9.70;99.90;;;8.51;100.00;96516.75;10404542;28;2141;-81
2021/09/02 04:30:50;;;;;;;;;;;9.80;99.90;;;8.47;100.00;96526.34;10406045;28;2085;-83
2021/09/02 04:35:55;;;;;;;;;;;9.70;99.90;;;8.57;100.00;96518.44;10428111;28;1985;-80
2021/09/02 04:40:58;;;;;;;;;;;9.80;99.90;;;8.60;100.00;96517.97;10426473;28;2204;-79
2021/09/02 04:46:01;;;;;;;;;;;9.80;99.90;;;8.70;100.00;96513.84;10432945;28;2095;-82
2021/09/02 04:51:04;;;;;;;;;;;9.80;99.90;;;8.87;100.00;96520.00;10429163;28;2064;-83
2021/09/02 04:56:06;;;;;;;;;;;9.90;99.90;;;9.18;100.00;96516.75;10420844;28;2077;-83
2021/09/02 05:01:09;;;;;;;;;;;10.10;99.90;;;9.49;100.00;96509.13;10423113;28;2080;-81
2021/09/02 05:06:12;;;;;;;;;;;10.30;99.90;;;9.71;100.00;96509.91;10438135;28;2051;-82
2021/09/02 05:11:15;;;;;;;;;;;10.60;99.90;;;9.85;100.00;96509.53;10445501;28;1950;-84
2021/09/02 05:16:18;;;;;;;;;;;10.70;99.90;;;10.13;100.00;96511.22;10427207;28;2040;-82
2021/09/02 05:21:21;;;;;;;;;;;10.90;99.90;;;10.34;100.00;96517.63;10409602;28;2032;-84
2021/09/02 05:26:24;;;;;;;;;;;11.10;99.90;;;10.78;100.00;96518.31;10425129;28;2192;-82
2021/09/02 05:31:28;;;;;;;;;;;11.40;99.90;;;11.28;100.00;96509.81;10404913;28;2138;-81
2021/09/02 05:36:30;;;;;;;;;;;11.80;99.90;;;11.84;97.54;96504.72;10402976;28;2011;-80
2021/09/02 05:41:33;;;;;;;;;;;12.20;99.90;;;11.98;95.38;96506.94;10406070;28;2184;-82
2021/09/02 05:46:36;;;;;;;;;;;12.50;99.90;;;12.27;93.97;96509.97;10408524;28;2037;-81
2021/09/02 05:51:42;;;;;;;;;;;12.70;99.90;;;12.40;92.12;96510.25;10407394;28;2262;-81
2021/09/02 05:56:45;;;;;;;;;;;12.90;99.90;;;12.08;93.38;96521.22;10411870;28;2045;-82
2021/09/02 06:01:48;;;;;;;;;;;13.00;99.90;;;11.80;95.68;96516.25;10420672;28;2053;-80
2021/09/02 06:06:52;;;;;;;;;;;12.90;99.90;;;11.94;96.06;96528.19;10409889;28;2066;-83
2021/09/02 06:11:55;;;;;;;;;;;12.90;99.90;;;11.75;96.61;96532.41;10406564;28;2128;-80
2021/09/02 06:16:58;;;;;;;;;;;12.80;99.90;;;11.99;96.53;96522.03;10400519;28;2162;-79
2021/09/02 06:22:00;;;;;;;;;;;12.80;99.90;;;12.31;94.06;96519.97;10407163;28;2120;-79
2021/09/02 06:27:03;;;;;;;;;;;13.10;99.90;;;12.62;92.96;96531.63;10405107;28;2124;-82
2021/09/02 06:32:06;;;;;;;;;;;13.30;99.90;;;12.77;92.05;96528.13;10401831;28;2024;-82
2021/09/02 06:37:09;;;;;;;;;;;13.60;99.90;;;13.06;91.27;96527.59;10408889;28;1549;-82
2021/09/02 06:42:12;;;;;;;;;;;13.70;99.90;;;13.49;88.29;96518.94;10415257;28;1963;-81
2021/09/02 06:47:15;;;;;;;;;;;14.00;99.90;;;13.75;87.34;96522.38;10409265;28;2100;-83
2021/09/02 06:52:18;;;;;;;;;;;14.30;99.90;;;13.90;86.47;96524.19;10414668;28;1995;-84
2021/09/02 06:57:21;;;;;;;;;;;14.50;99.90;;;14.04;84.58;96519.81;10407970;28;2052;-84
2021/09/02 07:02:24;;;;;;;;;;;14.60;99.90;;;13.89;84.21;96522.59;10406477;28;1735;-82
2021/09/02 07:07:28;;;;;;;;;;;14.90;99.90;;;14.09;83.52;96527.09;10411024;28;1872;-82
2021/09/02 07:12:31;;;;;;;;;;;14.90;99.90;;;14.32;83.27;96525.66;10414975;28;2002;-82
2021/09/02 07:17:34;;;;;;;;;;;15.00;99.90;;;14.25;82.79;96531.34;10427873;28;1881;-82
2021/09/02 07:22:37;;;;;;;;;;;15.00;99.90;;;14.49;81.00;96536.09;10426310;28;1932;-80
2021/09/02 07:27:40;;;;;;;;;;;15.30;99.90;;;14.79;79.05;96543.22;10427181;28;1993;-84
2021/09/02 07:32:42;;;;;;;;;;;15.40;99.90;;;14.92;77.20;96548.00;10424732;28;1985;-85
2021/09/02 07:37:45;;;;;;;;;;;15.70;99.90;;;14.81;79.36;96554.56;10422712;28;2125;-82
2021/09/02 07:42:51;;;;;;;;;;;15.60;99.90;;;14.97;77.34;96558.81;10426986;28;2192;-85
2021/09/02 07:47:55;;;;;;;;;;;15.80;99.90;;;15.26;76.45;96549.91;10419474;28;2073;-84
2021/09/02 07:52:58;;;;;;;;;;;16.00;99.90;;;15.36;74.13;96558.75;10413111;28;1992;-83
2021/09/02 07:58:01;;;;;;;;;;;16.30;99.90;;;15.37;74.03;96562.25;10414672;28;1700;-83
2021/09/02 08:03:05;;;;;;;;;;;16.30;99.90;;;15.80;72.94;96559.72;10415805;28;1900;-83
2021/09/02 08:08:09;;;;;;;;;;;16.50;99.90;;;16.17;72.73;96569.88;10408778;28;2021;-83
2021/09/02 08:13:13;;;;;;;;;;;16.80;99.90;;;16.13;70.64;96564.22;10435144;28;1952;-86
2021/09/02 08:18:17;;;;;;;;;;;17.10;99.90;;;16.57;68.75;96563.09;10459094;28;2042;-85
2021/09/02 08:23:19;;;;;;;;;;;17.30;99.90;;;16.50;67.25;96565.38;10435972;28;1872;-83
2021/09/02 08:28:23;;;;;;;;;;;17.40;99.90;;;16.81;65.86;96567.69;10415089;28;1705;-82
2021/09/02 08:33:26;;;;;;;;;;;17.60;99.90;;;16.96;64.67;96575.63;10412529;28;1957;-84
2021/09/02 08:38:30;;;;;;;;;;;17.90;99.90;;;16.92;63.45;96564.56;10421351;28;2084;-82
2021/09/02 08:43:35;;;;;;;;;;;17.90;99.90;;;16.81;63.52;96567.69;10416139;28;1877;-81
2021/09/02 08:48:53;;;;;;;;;;;17.80;99.90;;;17.03;63.79;96571.41;10410318;28;2005;-84
2021/09/02 08:53:57;;;;;;;;;;;18.00;99.90;;;17.51;63.33;96560.31;10436756;28;1894;-84
2021/09/02 08:59:00;;;;;;;;;;;18.20;99.90;;;17.42;61.59;96556.66;10443453;28;1943;-83
2021/09/02 09:04:06;;;;;;;;;;;18.50;99.90;;;17.39;61.13;96549.13;10422631;28;1701;-84
2021/09/02 09:09:10;;;;;;;;;;;18.40;99.90;;;17.70;59.42;96562.97;10401774;28;2069;-83
2021/09/02 09:14:14;;;;;;;;;;;18.70;99.90;;;17.73;59.19;96556.94;10422371;28;1966;-82
2021/09/02 09:19:20;;;;;;;;;;;18.70;99.90;;;17.87;58.76;96556.97;10408940;28;1947;-86
2021/09/02 09:24:23;;;;;;;;;;;18.80;99.90;;;17.86;59.13;96546.41;10407598;28;2019;-80
2021/09/02 09:29:26;;;;;;;;;;;18.90;99.90;;;18.35;59.15;96549.22;10415779;28;2029;-81
2021/09/02 09:34:29;;;;;;;;;;;19.00;99.90;;;18.57;58.48;96553.09;10419357;28;1918;-81
2021/09/02 09:39:32;;;;;;;;;;;19.30;99.90;;;18.88;58.94;96548.63;10400438;28;1994;-82
2021/09/02 09:44:35;;;;;;;;;;;19.50;99.90;;;18.74;57.38;96553.31;10407294;28;1602;-82
2021/09/02 09:49:41;;;;;;;;;;;19.60;99.90;;;18.77;56.04;96546.47;10404024;28;2033;-80
2021/09/02 09:54:44;;;;;;;;;;;19.80;99.90;;;18.77;56.90;96536.38;10411735;28;2105;-84
2021/09/02 09:59:46;;;;;;;;;;;19.70;99.90;;;18.79;56.87;96525.97;10418286;28;1986;-79
2021/09/02 10:04:49;;;;;;;;;;;19.70;99.90;;;18.95;54.83;96525.59;10406721;28;1982;-82
2021/09/02 10:09:53;;;;;;;;;;;19.80;99.90;;;18.88;55.21;96529.53;10409839;28;2069;-80
2021/09/02 10:14:56;;;;;;;;;;;19.80;99.90;;;18.88;54.59;96526.81;10423058;28;2285;-80
2021/09/02 10:19:59;;;;;;;;;;;19.80;99.90;;;18.74;54.21;96525.25;10417730;28;1970;-83
2021/09/02 10:25:04;;;;;;;;;;;19.80;99.90;;;18.87;53.27;96518.97;10423257;28;1775;-81
2021/09/02 10:30:07;;;;;;;;;;;19.70;99.90;;;18.66;52.30;96507.72;10406432;28;3335;-81
2021/09/02 10:35:12;;;;;;;;;;;19.80;99.90;;;19.06;51.90;96516.88;10420791;28;2290;-81
2021/09/02 10:40:15;;;;;;;;;;;19.80;99.90;;;19.10;53.51;96509.69;10437767;28;1868;-83
2021/09/02 10:45:18;;;;;;;;;;;20.00;99.90;;;19.02;52.00;96510.44;10415347;28;2270;-84
2021/09/02 10:50:21;;;;;;;;;;;20.00;99.90;;;19.34;52.58;96508.53;10403905;28;2002;-82
2021/09/02 10:55:24;;;;;;;;;;;20.10;99.90;;;19.42;50.58;96511.34;10399592;28;2064;-82
2021/09/02 11:00:28;;;;;;;;;;;20.30;99.90;;;19.28;50.37;96493.47;10421303;28;1641;-81
2021/09/02 11:05:32;;;;;;;;;;;20.30;99.90;;;19.44;50.94;96506.38;10437849;28;2331;-81
2021/09/02 11:10:35;;;;;;;;;;;20.40;99.90;;;19.48;49.18;96513.94;10416410;28;2130;-78
2021/09/02 11:15:38;;;;;;;;;;;20.50;99.90;;;19.33;49.33;96510.47;10412866;28;2040;-82
2021/09/02 11:20:41;;;;;;;;;;;20.40;99.90;;;19.23;49.70;96508.00;10399209;28;2056;-82
2021/09/02 11:25:44;;;;;;;;;;;20.30;99.90;;;19.26;50.22;96499.19;10414675;28;2026;-83
2021/09/02 11:30:47;;;;;;;;;;;20.20;99.90;;;19.34;49.32;96509.38;10407614;28;1994;-82
2021/09/02 11:35:50;;;;;;;;;;;20.40;99.90;;;19.38;49.91;96499.44;10416832;28;1970;-82
2021/09/02 11:40:53;;;;;;;;;;;20.20;99.90;;;19.33;49.11;96483.19;10412481;28;2017;-83
2021/09/02 11:45:56;;;;;;;;;;;20.30;99.90;;;19.42;50.70;96481.34;10399200;28;1897;-82
2021/09/02 11:50:59;;;;;;;;;;;20.30;99.90;;;19.49;51.72;96482.81;10403744;28;2225;-83
2021/09/02 11:56:02;;;;;;;;;;;20.50;99.90;;;19.69;52.38;96479.56;10402075;28;2144;-82
2021/09/02 12:01:05;;;;;;;;;;;20.50;99.90;;;19.48;51.39;96475.75;10406480;28;2119;-83
2021/09/02 12:06:08;;;;;;;;;;;20.50;99.90;;;19.57;50.54;96476.59;10405704;28;2551;-81
2021/09/02 12:11:11;;;;;;;;;;;20.60;99.90;;;19.69;51.31;96465.94;10400141;28;2096;-79
2021/09/02 12:16:16;;;;;;;;;;;20.50;99.90;;;19.65;50.38;96479.38;10393502;28;2056;-82
2021/09/02 12:21:19;;;;;;;;;;;20.60;99.90;;;19.81;49.83;96466.13;10402088;28;2165;-84
2021/09/02 12:26:22;;;;;;;;;;;20.70;99.90;;;19.83;49.84;96474.81;10414296;28;2263;-80
2021/09/02 12:31:25;;;;;;;;;;;20.80;99.90;;;19.95;49.61;96471.47;10421377;28;2084;-81
2021/09/02 12:36:28;;;;;;;;;;;20.90;99.90;;;20.05;50.55;96470.41;10423711;28;2036;-80
2021/09/02 12:41:31;;;;;;;;;;;21.00;99.90;;;20.13;49.93;96477.78;10397772;28;2179;-83
2021/09/02 12:46:34;;;;;;;;;;;21.20;99.90;;;20.12;49.69;96471.53;10402041;28;2088;-81
2021/09/02 12:51:37;;;;;;;;;;;21.10;99.90;;;20.21;48.96;96469.63;10409571;28;2139;-81
2021/09/02 12:56:40;;;;;;;;;;;21.20;99.90;;;19.94;50.06;96456.22;10404614;28;2192;-83
2021/09/02 13:01:43;;;;;;;;;;;21.10;99.90;;;20.32;49.45;96459.19;10414845;28;2142;-82
2021/09/02 13:06:46;;;;;;;;;;;21.20;99.90;;;20.14;48.48;96452.09;10407297;28;2226;-81
2021/09/02 13:11:49;;;;;;;;;;;21.20;99.90;;;20.38;48.62;96447.00;10415316;28;2093;-81
2021/09/02 13:16:57;;;;;;;;;;;21.20;99.90;;;20.36;49.21;96452.00;10417210;28;2127;-82
2021/09/02 13:22:00;;;;;;;;;;;21.20;99.90;;;20.15;49.33;96443.59;10409022;28;2697;-77
2021/09/02 13:27:03;;;;;;;;;;;21.20;99.90;;;20.27;49.02;96440.25;10418190;28;2026;-80
2021/09/02 13:32:05;;;;;;;;;;;21.20;99.90;;;20.30;46.81;96434.16;10405918;28;2649;-81
2021/09/02 13:37:08;;;;;;;;;;;21.30;99.90;;;20.34;46.68;96435.09;10420625;28;2033;-79
2021/09/02 13:42:11;;;;;;;;;;;21.20;99.90;;;20.59;46.11;96424.53;10431144;28;2097;-78
2021/09/02 13:47:14;;;;;;;;;;;21.40;99.90;;;20.30;46.12;96434.16;10433604;28;2167;-81
2021/09/02 13:52:20;;;;;;;;;;;21.40;99.90;;;20.37;46.87;96423.56;10406409;28;2050;-79
2021/09/02 13:57:24;;;;;;;;;;;21.30;99.90;;;20.56;45.97;96419.75;10402661;28;2153;-78
2021/09/02 14:02:28;;;;;;;;;;;21.40;99.90;;;20.47;46.90;96425.97;10413666;28;1566;-81
2021/09/02 14:07:32;;;;;;;;;;;21.50;99.90;;;20.43;48.11;96422.28;10414543;28;2011;-81
2021/09/02 14:12:35;;;;;;;;;;;21.40;99.90;;;20.62;47.11;96426.66;10418984;28;2135;-79
2021/09/02 14:17:38;;;;;;;;;;;21.40;99.90;;;20.62;48.42;96413.00;10409577;28;1973;-82
2021/09/02 14:22:42;;;;;;;;;;;21.50;99.90;;;20.66;47.71;96412.00;10407895;28;2029;-81
2021/09/02 14:27:47;;;;;;;;;;;21.60;99.90;;;20.52;49.23;96395.78;10417445;28;2057;-81
2021/09/02 14:32:50;;;;;;;;;;;21.50;99.90;;;20.35;49.49;96395.75;10404998;28;2027;-82
2021/09/02 14:37:53;;;;;;;;;;;21.40;99.90;;;20.52;50.01;96395.78;10413350;28;1995;-79
2021/09/02 14:42:56;;;;;;;;;;;21.40;99.90;;;20.60;49.91;96387.91;10409443;28;2061;-81
2021/09/02 14:47:59;;;;;;;;;;;21.50;99.90;;;20.43;50.35;96378.59;10402861;28;2306;-82
2021/09/02 14:53:02;;;;;;;;;;;21.50;99.90;;;20.43;50.81;96381.31;10404070;28;2088;-81
2021/09/02 14:58:05;;;;;;;;;;;21.50;99.90;;;20.50;51.23;96376.19;10402660;28;2016;-80
2021/09/02 15:03:08;;;;;;;;;;;21.30;99.90;;;20.42;50.02;96374.25;10404050;28;2030;-80
2021/09/02 15:08:11;;;;;;;;;;;21.40;99.90;;;20.36;50.12;96371.97;10423618;28;1970;-79
2021/09/02 15:13:14;;;;;;;;;;;21.30;99.90;;;20.49;50.18;96371.06;10398312;28;1708;-84
2021/09/02 15:18:16;;;;;;;;;;;21.30;99.90;;;20.32;48.73;96373.75;10405145;28;1914;-83
2021/09/02 15:23:19;;;;;;;;;;;21.30;99.90;;;20.14;49.88;96365.56;10399889;28;2104;-82
2021/09/02 15:28:41;;;;;;;;;;;21.10;99.90;;;20.03;51.21;96363.47;10402212;28;2137;-82
2021/09/02 15:33:58;;;;;;;;;;;21.00;99.90;;;19.89;51.21;96353.50;10408646;28;2093;-81
2021/09/02 15:39:01;;;;;;;;;;;20.90;99.90;;;19.89;50.81;96361.69;10409070;28;2029;-82
2021/09/02 15:44:04;;;;;;;;;;;20.90;99.90;;;19.74;51.02;96362.16;10408397;28;1904;-78
2021/09/02 15:49:07;;;;;;;;;;;20.70;99.90;;;19.61;51.11;96352.97;10420813;28;2009;-80
2021/09/02 15:54:10;;;;;;;;;;;20.60;99.90;;;19.53;50.99;96361.91;10424028;28;1910;-82
2021/09/02 15:59:13;;;;;;;;;;;20.50;99.90;;;19.53;51.00;96363.81;10402589;28;1984;-80
2021/09/02 16:04:16;;;;;;;;;;;20.50;99.90;;;19.49;50.77;96358.19;10422467;28;2215;-83
2021/09/02 16:09:19;;;;;;;;;;;20.40;99.90;;;19.48;50.91;96358.53;10420646;28;1770;-80
2021/09/02 16:14:22;;;;;;;;;;;20.40;99.90;;;19.41;50.58;96357.06;10418719;28;2070;-83
2021/09/02 16:19:25;;;;;;;;;;;20.40;99.90;;;19.33;51.78;96349.63;10423985;28;2069;-82
2021/09/02 16:24:28;;;;;;;;;;;20.30;99.90;;;19.20;51.46;96347.81;10403265;28;2328;-81
2021/09/02 16:29:31;;;;;;;;;;;20.20;99.90;;;19.10;51.04;96343.47;10405182;28;1733;-79
2021/09/02 16:34:34;;;;;;;;;;;20.00;99.90;;;19.08;50.49;96345.69;10408175;28;2021;-81
2021/09/02 16:39:37;;;;;;;;;;;20.00;99.90;;;18.99;50.17;96346.78;10408318;28;1970;-80
2021/09/02 16:44:40;;;;;;;;;;;19.90;99.90;;;18.85;50.31;96349.59;10402089;28;1975;-81
2021/09/02 16:49:43;;;;;;;;;;;19.80;99.90;;;18.77;50.00;96339.47;10408953;28;2141;-80
2021/09/02 16:54:46;;;;;;;;;;;19.70;99.90;;;18.66;50.55;96333.44;10406090;28;1887;-81
2021/09/02 16:59:49;;;;;;;;;;;19.70;99.90;;;18.51;51.26;96337.34;10411151;28;2279;-83
2021/09/02 17:04:52;;;;;;;;;;;19.60;99.90;;;18.44;52.26;96345.13;10434485;28;2142;-82
2021/09/02 17:09:55;;;;;;;;;;;19.40;99.90;;;18.26;52.95;96333.34;10426480;28;2063;-80
2021/09/02 17:14:58;;;;;;;;;;;19.30;99.90;;;18.13;54.39;96328.72;10405219;28;2050;-84
2021/09/02 17:20:00;;;;;;;;;;;19.20;99.90;;;17.98;55.60;96324.47;10405323;28;2022;-82
2021/09/02 17:25:04;;;;;;;;;;;19.10;99.90;;;17.85;57.39;96319.06;10409154;28;2112;-81
2021/09/02 17:30:11;;;;;;;;;;;18.90;99.90;;;17.65;59.13;96310.22;10407047;28;2031;-80
2021/09/02 17:35:34;;;;;;;;;;;18.70;99.90;;;17.55;60.18;96310.44;10365579;28;1201222;-82
2021/09/02 17:40:37;;;;;;;;;;;18.60;99.90;;;17.43;61.22;96321.00;10436592;28;2101;-79
2021/09/02 17:45:40;;;;;;;;;;;18.50;99.90;;;17.27;62.01;96312.38;10405392;28;2135;-79
2021/09/02 17:50:43;;;;;;;;;;;18.40;99.90;;;17.00;63.19;96315.91;10405722;28;2067;-78
2021/09/02 17:55:46;;;;;;;;;;;18.20;99.90;;;16.84;64.12;96323.53;10407497;28;2080;-79
2021/09/02 18:00:49;;;;;;;;;;;17.90;99.90;;;16.67;65.45;96313.25;10405611;28;2215;-79
2021/09/02 18:05:52;;;;;;;;;;;17.80;99.90;;;16.57;65.89;96312.59;10399279;28;2145;-80
2021/09/02 18:10:55;;;;;;;;;;;17.70;99.90;;;16.34;66.91;96317.88;10417203;28;2246;-81
2021/09/02 18:15:58;;;;;;;;;;;17.50;99.90;;;16.24;67.41;96328.91;10399185;28;2188;-78
2021/09/02 18:21:01;;;;;;;;;;;17.30;99.90;;;16.31;66.93;96332.03;10407740;28;2093;-79
2021/09/02 18:26:03;;;;;;;;;;;17.30;99.90;;;16.13;67.91;96330.97;10403540;28;2112;-80
2021/09/02 18:31:06;;;;;;;;;;;17.20;99.90;;;16.08;67.99;96333.75;10409889;28;2095;-78
2021/09/02 18:36:10;;;;;;;;;;;17.10;99.90;;;16.02;68.66;96334.91;10407740;28;2060;-77
2021/09/02 18:41:13;;;;;;;;;;;17.00;99.90;;;15.94;69.17;96327.47;10431299;28;2060;-79
2021/09/02 18:46:16;;;;;;;;;;;17.00;99.90;;;15.75;69.81;96334.78;10425068;28;2167;-79
2021/09/02 18:51:19;;;;;;;;;;;16.90;99.90;;;15.75;69.39;96334.78;10416656;28;2246;-79
2021/09/02 18:56:22;;;;;;;;;;;16.80;99.90;;;15.67;69.51;96328.94;10411569;28;2173;-78
2021/09/02 19:01:25;;;;;;;;;;;16.70;99.90;;;15.59;70.10;96332.28;10405517;28;2068;-78
2021/09/02 19:06:28;;;;;;;;;;;16.60;99.90;;;15.45;70.82;96335.97;10400967;28;2163;-78
2021/09/02 19:11:31;;;;;;;;;;;16.50;99.90;;;15.36;71.26;96338.53;10396194;28;2234;-79
2021/09/02 19:16:34;;;;;;;;;;;16.40;99.90;;;15.23;72.00;96336.53;10403200;28;2210;-77
2021/09/02 19:21:37;;;;;;;;;;;16.30;99.90;;;15.08;73.19;96326.69;10407930;28;2223;-79
2021/09/02 19:26:40;;;;;;;;;;;16.20;99.90;;;14.87;74.16;96326.09;10411967;28;2255;-79
2021/09/02 19:31:43;;;;;;;;;;;16.10;99.90;;;14.81;75.15;96333.44;10403053;28;2113;-78
2021/09/02 19:36:46;;;;;;;;;;;16.00;99.90;;;14.66;76.27;96336.31;10404262;28;2099;-79
2021/09/02 19:41:48;;;;;;;;;;;15.80;99.90;;;14.58;76.60;96335.03;10399954;28;2041;-77
2021/09/02 19:46:51;;;;;;;;;;;15.70;99.90;;;14.53;77.31;96328.88;10414318;28;2116;-81
2021/09/02 19:51:54;;;;;;;;;;;15.60;99.90;;;14.30;78.63;96324.97;10412191;28;2161;-79
2021/09/02 19:57:15;;;;;;;;;;;15.50;99.90;;;14.34;79.12;96326.03;10407382;28;2057;-78
2021/09/02 20:02:18;;;;;;;;;;;15.40;99.90;;;14.19;79.79;96326.16;10428348;28;2120;-79
2021/09/02 20:07:22;;;;;;;;;;;15.40;99.90;;;14.04;81.58;96329.78;10429494;28;2064;-81
2021/09/02 20:12:25;;;;;;;;;;;15.20;99.90;;;13.96;81.65;96322.28;10440106;28;1912;-80
2021/09/02 20:17:28;;;;;;;;;;;15.10;99.90;;;13.85;83.20;96315.31;10439382;28;1951;-78
2021/09/02 20:22:31;;;;;;;;;;;15.00;99.90;;;13.90;83.32;96316.09;10428145;28;2116;-80
2021/09/02 20:27:34;;;;;;;;;;;14.90;99.90;;;13.81;83.88;96315.09;10440653;28;1994;-81
2021/09/02 20:32:36;;;;;;;;;;;14.90;99.90;;;13.69;84.87;96320.03;10440630;28;1818;-81
2021/09/02 20:37:39;;;;;;;;;;;14.80;99.90;;;13.54;86.08;96315.50;10410683;28;2029;-77
2021/09/02 20:42:42;;;;;;;;;;;14.70;99.90;;;13.58;86.05;96315.78;10397102;28;2057;-77
2021/09/02 20:47:45;;;;;;;;;;;14.70;99.90;;;13.37;87.03;96315.88;10404637;28;2116;-80
2021/09/02 20:52:48;;;;;;;;;;;14.60;99.90;;;13.23;88.93;96322.97;10397463;28;2043;-79
2021/09/02 20:57:51;;;;;;;;;;;14.40;99.90;;;13.22;89.18;96318.66;10406239;28;2026;-80
2021/09/02 21:02:56;;;;;;;;;;;14.40;99.90;;;13.14;90.47;96316.50;10406063;28;1955;-80
2021/09/02 21:07:59;;;;;;;;;;;14.30;99.90;;;12.97;91.22;96316.81;10400343;28;1838;-79
2021/09/02 21:13:02;;;;;;;;;;;14.20;99.90;;;12.87;92.45;96320.38;10425106;28;2043;-81
2021/09/02 21:18:05;;;;;;;;;;;14.10;99.90;;;13.01;92.58;96303.59;10410940;28;2091;-79
2021/09/02 21:23:08;;;;;;;;;;;14.10;99.90;;;12.98;92.32;96303.06;10411671;28;1872;-79
2021/09/02 21:28:10;;;;;;;;;;;14.10;99.90;;;12.92;93.14;96306.88;10427292;28;1856;-80
2021/09/02 21:33:13;;;;;;;;;;;14.10;99.90;;;12.90;93.18;96298.22;10404596;28;2141;-81
2021/09/02 21:38:16;;;;;;;;;;;14.00;99.90;;;12.77;93.84;96296.13;10414423;28;1938;-81
2021/09/02 21:43:19;;;;;;;;;;;13.90;99.90;;;12.78;94.15;96297.72;10449572;28;1865;-81
2021/09/02 21:48:22;;;;;;;;;;;13.90;99.90;;;12.56;96.57;96299.94;10436562;28;1742;-79
2021/09/02 21:53:25;;;;;;;;;;;13.80;99.90;;;12.61;96.38;96286.47;10447924;28;1853;-80
2021/09/02 21:58:28;;;;;;;;;;;13.70;99.90;;;12.45;97.29;96286.47;10444861;28;1956;-80
2021/09/02 22:03:31;;;;;;;;;;;13.70;99.90;;;12.25;98.76;96289.22;10449602;28;1956;-79
2021/09/02 22:08:33;;;;;;;;;;;13.60;99.90;;;12.33;99.71;96285.97;10434875;28;1923;-80
2021/09/02 22:13:36;;;;;;;;;;;13.50;99.90;;;12.26;100.00;96281.94;10447293;28;1833;-81
2021/09/02 22:18:39;;;;;;;;;;;13.40;99.90;;;12.25;99.54;96266.84;10432137;28;2042;-80
2021/09/02 22:23:42;;;;;;;;;;;13.40;99.90;;;12.13;100.00;96269.81;10430614;28;1959;-80
2021/09/02 22:28:45;;;;;;;;;;;13.30;99.90;;;12.09;100.00;96268.75;10402994;28;1975;-79
2021/09/02 22:33:48;;;;;;;;;;;13.30;99.90;;;12.05;100.00;96270.38;10431851;28;2076;-81
2021/09/02 22:38:50;;;;;;;;;;;13.20;99.90;;;12.07;100.00;96266.31;10443529;28;1954;-80
2021/09/02 22:43:53;;;;;;;;;;;13.10;99.90;;;12.09;100.00;96269.56;10422998;28;2185;-79
2021/09/02 22:48:56;;;;;;;;;;;13.10;99.90;;;11.96;100.00;96263.88;10410333;28;1737;-76
2021/09/02 22:53:59;;;;;;;;;;;13.10;99.90;;;11.77;100.00;96263.59;10397991;28;2080;-78
2021/09/02 22:59:02;;;;;;;;;;;13.00;99.90;;;11.71;100.00;96259.31;10399171;28;2112;-76
2021/09/02 23:04:05;;;;;;;;;;;12.90;99.90;;;11.80;100.00;96266.56;10392397;28;2057;-78
2021/09/02 23:09:08;;;;;;;;;;;12.90;99.90;;;11.78;100.00;96254.47;10398892;28;1994;-78
2021/09/02 23:14:10;;;;;;;;;;;12.80;99.90;;;11.78;100.00;96241.00;10407251;28;1786;-77